Queen Of Nanaimo — VCNX — position and weather

sailwx.info

Track history (hours):
 
Tides and Currents Weather Stations Pressure Air Temp Water Temp Dewpoint Dewpoint Depression Visibility Wind Speed Wind Dir Waves Ship Positions

Queen Of Nanaimo

Last reported at 2015-Aug-04 23:33 UTC. Time now 2015-Aug-04 23:54 UTC.
Position N 48°48' W 123°20'.

Length 130 m; draft 4 m.

Type: Passenger vessel. MMSI: 316001254.

Date/timePositionNaut miles runAvg speedWind from/ knotsBaromVisibWave heightAir tempDewpointWater temp
2015-Aug-04 23:33N 48°48' W 123°20'6 5.6
2015-Aug-04 22:32N 48°51' W 123°27'0 0.1
2015-Aug-04 21:26N 48°51' W 123°27'6 6.4
2015-Aug-04 20:29N 48°48' W 123°19'4 3.9
2015-Aug-04 19:34N 48°52' W 123°19'8 8.4
2015-Aug-04 18:34N 48°58' W 123°11'3 3.0
2015-Aug-04 17:33N 49°00' W 123°08'9 9.3
2015-Aug-04 16:33N 48°53' W 123°17'3 2.5
2015-Aug-04 15:33N 48°51' W 123°20'2 1.6
2015-Aug-04 14:34N 48°50' W 123°20'3 2.8
2015-Aug-04 13:33N 48°50' W 123°25'2 1.9
2015-Aug-04 12:22N 48°51' W 123°27'0 0.0
2015-Aug-04 11:27N 48°51' W 123°27'0 0.0
2015-Aug-04 09:28N 48°51' W 123°27'0 0.0
2015-Aug-04 08:14N 48°51' W 123°27'0 0.0
2015-Aug-04 07:32N 48°51' W 123°27'7 7.2
2015-Aug-04 06:34N 48°54' W 123°17'9 8.9
2015-Aug-04 05:33N 49°00' W 123°08'10 9.8
2015-Aug-04 04:33N 48°53' W 123°18'3 2.6
2015-Aug-04 03:33N 48°51' W 123°20'7 7.2
2015-Aug-04 02:34N 48°57' W 123°13'5 5.3
2015-Aug-04 01:33N 49°00' W 123°08'1110.6
2015-Aug-04 00:33N 48°53' W 123°19'5 5.3
2015-Aug-03 23:32N 48°51' W 123°27'4 3.7
2015-Aug-03 22:33N 48°51' W 123°21'1212.3
2015-Aug-03 21:33N 49°00' W 123°08'2 2.0
2015-Aug-03 20:33N 48°58' W 123°09'8 8.4
2015-Aug-03 19:33N 48°53' W 123°19'2 1.9
2015-Aug-03 18:31N 48°51' W 123°20'5 4.7
2015-Aug-03 17:34N 48°55' W 123°16'8 7.9
2015-Aug-03 16:34N 49°00' W 123°08'9 8.6
2015-Aug-03 15:33N 48°54' W 123°16'6 6.0
2015-Aug-03 14:33N 48°51' W 123°25'1 1.3
2015-Aug-03 13:24N 48°51' W 123°27'0 0.0
2015-Aug-03 09:19N 48°51' W 123°27'7 2.5
2015-Aug-03 06:34N 48°54' W 123°17'9 8.9
2015-Aug-03 05:33N 49°00' W 123°08'1110.6
2015-Aug-03 04:33N 48°53' W 123°18'2 1.5
2015-Aug-03 03:17N 48°51' W 123°20'5 6.8
2015-Aug-03 02:33N 48°55' W 123°16'8 7.6
2015-Aug-03 01:33N 49°00' W 123°08'1110.7
2015-Aug-03 00:33N 48°52' W 123°18'5 5.4
2015-Aug-02 23:33N 48°51' W 123°27'1 1.3
2015-Aug-02 22:33N 48°51' W 123°25'1211.6
2015-Aug-02 21:33N 48°58' W 123°12'3 2.5
2015-Aug-02 20:33N 48°60' W 123°08'10 9.8
2015-Aug-02 19:34N 48°53' W 123°19'2 1.7
2015-Aug-02 18:27N 48°51' W 123°20'6 6.7
2015-Aug-02 17:34N 48°56' W 123°14'7 6.5
2015-Aug-02 16:34N 49°00' W 123°08'8 8.1
2015-Aug-02 15:34N 48°54' W 123°15'7 6.7
2015-Aug-02 14:33N 48°51' W 123°25'1 1.3
2015-Aug-02 13:29N 48°51' W 123°27'0 0.0
2015-Aug-02 12:28N 48°51' W 123°27'0 0.0
2015-Aug-02 11:28N 48°51' W 123°27'0 0.0
2015-Aug-02 09:13N 48°51' W 123°27'3 0.9
2015-Aug-02 05:33N 48°51' W 123°22'1312.7
2015-Aug-02 04:34N 48°60' W 123°08'0 0.4
2015-Aug-02 03:33N 49°00' W 123°08'0 0.0
2015-Aug-02 02:33N 49°00' W 123°08'0 0.0
2015-Aug-02 01:34N 49°00' W 123°08'1211.7
2015-Aug-02 00:33N 48°51' W 123°20'5 4.6
2015-Aug-01 23:32N 48°51' W 123°27'1 0.3
2015-Aug-01 21:28N 48°51' W 123°26'910.3
2015-Aug-01 20:33N 48°56' W 123°15'6 6.1
2015-Aug-01 19:33N 49°00' W 123°08'1010.0
2015-Aug-01 18:33N 48°53' W 123°18'3 2.6
2015-Aug-01 17:33N 48°51' W 123°21'6 5.7
2015-Aug-01 16:34N 48°55' W 123°15'7 6.9
2015-Aug-01 15:33N 49°00' W 123°08'5 4.9
2015-Aug-01 14:33N 48°56' W 123°12'1110.6
2015-Aug-01 13:33N 48°51' W 123°25'1 1.1
2015-Aug-01 12:33N 48°51' W 123°27'0 0.0
2015-Aug-01 11:13N 48°51' W 123°27'0 0.0
2015-Aug-01 09:03N 48°51' W 123°27'0 0.0
2015-Aug-01 07:04N 48°51' W 123°27'0 0.0
2015-Aug-01 06:33N 48°51' W 123°27'6 6.1
2015-Aug-01 05:33N 48°48' W 123°19'6 6.4
2015-Aug-01 04:34N 48°54' W 123°17'9 8.7
2015-Aug-01 03:33N 49°00' W 123°08'5 5.2
2015-Aug-01 02:33N 48°56' W 123°12'7 6.0
2015-Aug-01 01:22N 48°51' W 123°20'2 2.4
2015-Aug-01 00:33N 48°53' W 123°19'1110.8
2015-Jul-31 23:33N 49°00' W 123°08'1 0.5
2015-Jul-31 22:33N 48°60' W 123°08'1413.7
2015-Jul-31 21:33N 48°51' W 123°24'2 1.6
2015-Jul-31 20:28N 48°51' W 123°27'5 5.7
2015-Jul-31 19:33N 48°48' W 123°20'4 4.2
2015-Jul-31 18:33N 48°53' W 123°19'1010.4
2015-Jul-31 17:33N 49°00' W 123°08'0 0.3
2015-Jul-31 16:33N 49°00' W 123°08'1110.7
2015-Jul-31 15:33N 48°53' W 123°19'2 2.2
2015-Jul-31 14:33N 48°51' W 123°20'3 2.9
2015-Jul-31 13:33N 48°49' W 123°24'3 1.4
2015-Jul-31 11:23N 48°51' W 123°27'0 0.0
2015-Jul-31 10:33N 48°51' W 123°27'0 0.0
2015-Jul-31 09:31N 48°51' W 123°27'0 0.0
2015-Jul-31 08:27N 48°51' W 123°27'0 0.0
2015-Jul-31 07:28N 48°51' W 123°27'0 0.0
2015-Jul-31 06:31N 48°51' W 123°27'3 3.6
2015-Jul-31 05:33N 48°49' W 123°23'3 2.8
2015-Jul-31 04:25N 48°51' W 123°20'4 4.5
2015-Jul-31 03:33N 48°54' W 123°17'9 8.6
2015-Jul-31 02:33N 49°00' W 123°08'2 2.1
2015-Jul-31 01:33N 48°58' W 123°09'9 8.7
2015-Jul-31 00:33N 48°53' W 123°19'4 4.1
2015-Jul-30 23:33N 48°49' W 123°20'4 1.3
2015-Jul-30 20:30N 48°50' W 123°25'3 3.5
2015-Jul-30 19:33N 48°50' W 123°20'3 2.6
2015-Jul-30 18:33N 48°53' W 123°19'1110.6
2015-Jul-30 17:33N 49°00' W 123°08'0 0.1
2015-Jul-30 16:34N 49°00' W 123°08'1110.6
2015-Jul-30 15:33N 48°53' W 123°19'3 2.5
2015-Jul-30 14:33N 48°50' W 123°20'3 2.8
2015-Jul-30 13:32N 48°49' W 123°24'3 2.6
2015-Jul-30 12:33N 48°51' W 123°27'0 0.0
2015-Jul-30 11:29N 48°51' W 123°27'0 0.0
2015-Jul-30 10:32N 48°51' W 123°27'0 0.0
2015-Jul-30 09:25N 48°51' W 123°27'0 0.0
2015-Jul-30 07:12N 48°51' W 123°27'0 0.0
2015-Jul-30 06:12N 48°51' W 123°27'2 2.6
2015-Jul-30 05:33N 48°50' W 123°25'4 3.6
2015-Jul-30 04:33N 48°51' W 123°20'4 4.1
2015-Jul-30 03:34N 48°54' W 123°17'8 8.5
2015-Jul-30 02:33N 49°00' W 123°08'4 3.7
2015-Jul-30 01:34N 48°57' W 123°11'8 7.6
2015-Jul-30 00:33N 48°52' W 123°19'3 2.9
2015-Jul-29 23:34N 48°49' W 123°20'4 1.4
2015-Jul-29 20:32N 48°51' W 123°26'4 3.8
2015-Jul-29 19:33N 48°51' W 123°20'2 2.0
2015-Jul-29 18:34N 48°53' W 123°19'1110.7
2015-Jul-29 17:33N 49°00' W 123°08'0 0.0
2015-Jul-29 16:33N 49°00' W 123°08'1110.6
2015-Jul-29 15:33N 48°53' W 123°19'2 2.0
2015-Jul-29 14:33N 48°51' W 123°20'3 3.1
2015-Jul-29 13:33N 48°49' W 123°24'3 3.1
2015-Jul-29 12:33N 48°51' W 123°27'0 0.0
2015-Jul-29 10:33N 48°51' W 123°27'0 0.0
2015-Jul-29 09:11N 48°51' W 123°27'0 0.0
2015-Jul-29 08:32N 48°51' W 123°27'0 0.0
2015-Jul-29 06:03N 48°51' W 123°27'1 1.6
2015-Jul-29 05:33N 48°51' W 123°26'4 3.8
2015-Jul-29 04:33N 48°51' W 123°20'3 3.0
2015-Jul-29 03:33N 48°53' W 123°18'10 9.5
2015-Jul-29 02:33N 49°00' W 123°08'4 4.0
2015-Jul-29 01:33N 48°57' W 123°11'8 7.7
2015-Jul-29 00:33N 48°51' W 123°19'3 3.4
2015-Jul-28 23:34N 48°48' W 123°20'5 2.6
2015-Jul-28 21:28N 48°51' W 123°27'1 1.1
2015-Jul-28 20:33N 48°51' W 123°25'3 3.4
2015-Jul-28 19:33N 48°50' W 123°20'2 2.5
2015-Jul-28 18:33N 48°53' W 123°19'1010.2
2015-Jul-28 17:34N 49°00' W 123°08'1 0.5
2015-Jul-28 16:33N 49°00' W 123°08'1110.7
2015-Jul-28 15:33N 48°53' W 123°19'2 2.0
2015-Jul-28 14:33N 48°51' W 123°20'3 3.3
2015-Jul-28 13:33N 48°49' W 123°24'3 0.9
2015-Jul-28 10:28N 48°51' W 123°27'0 0.0
2015-Jul-28 09:08N 48°51' W 123°27'0 0.0
2015-Jul-28 08:18N 48°51' W 123°27'0 0.0
2015-Jul-28 07:33N 48°51' W 123°27'0 0.0
2015-Jul-28 06:32N 48°51' W 123°27'1 1.2
2015-Jul-28 05:33N 48°50' W 123°25'4 3.5
2015-Jul-28 04:28N 48°51' W 123°20'2 2.5
2015-Jul-28 03:33N 48°53' W 123°18'1010.3
2015-Jul-28 02:34N 49°00' W 123°08'4 4.2
2015-Jul-28 01:34N 48°57' W 123°12'7 7.4
2015-Jul-28 00:34N 48°51' W 123°19'3 2.8
2015-Jul-27 23:33N 48°49' W 123°20'5 4.6
2015-Jul-27 22:33N 48°51' W 123°26'1 0.4
2015-Jul-27 21:22N 48°51' W 123°27'5 5.7
2015-Jul-27 20:34N 48°48' W 123°21'3 2.7
2015-Jul-27 19:33N 48°51' W 123°20'2 2.4
2015-Jul-27 18:34N 48°53' W 123°18'1010.0
2015-Jul-27 17:33N 49°00' W 123°08'0 0.0
2015-Jul-27 16:33N 49°00' W 123°08'1110.7
2015-Jul-27 15:33N 48°53' W 123°19'2 2.0
2015-Jul-27 14:33N 48°51' W 123°20'3 3.3
2015-Jul-27 13:33N 48°49' W 123°24'3 0.7
2015-Jul-27 10:09N 48°51' W 123°27'0 0.0
2015-Jul-27 08:32N 48°51' W 123°27'0 0.0
2015-Jul-27 07:30N 48°51' W 123°27'9 9.6
2015-Jul-27 06:34N 48°56' W 123°15'7 6.6
2015-Jul-27 05:33N 49°00' W 123°08'1110.7
2015-Jul-27 04:34N 48°53' W 123°19'2 2.0
2015-Jul-27 03:33N 48°51' W 123°21'1312.6
2015-Jul-27 02:34N 49°00' W 123°08'4 3.6
2015-Jul-27 01:33N 48°57' W 123°11'7 7.3
2015-Jul-27 00:33N 48°52' W 123°18'6 4.4
2015-Jul-26 23:18N 48°51' W 123°27'7 9.1
2015-Jul-26 22:34N 48°54' W 123°17'9 9.0
2015-Jul-26 21:34N 49°00' W 123°08'7 6.8
2015-Jul-26 20:34N 48°55' W 123°14'5 5.2
2015-Jul-26 19:34N 48°52' W 123°20'1 0.7
2015-Jul-26 18:33N 48°51' W 123°20'6 5.7
2015-Jul-26 17:33N 48°56' W 123°15'7 6.9
2015-Jul-26 16:33N 49°00' W 123°08'7 7.5
2015-Jul-26 15:33N 48°55' W 123°15'7 6.8
2015-Jul-26 14:33N 48°51' W 123°24'2 1.7
2015-Jul-26 13:33N 48°51' W 123°27'0 0.0
2015-Jul-26 11:12N 48°51' W 123°27'0 0.0
2015-Jul-26 10:33N 48°51' W 123°27'0 0.0
2015-Jul-26 06:21N 48°51' W 123°27'4 4.8
2015-Jul-26 05:33N 48°52' W 123°21'1212.2
2015-Jul-26 04:33N 49°00' W 123°08'0 0.3
2015-Jul-26 03:33N 49°00' W 123°08'0 0.0
2015-Jul-26 02:33N 49°00' W 123°08'0 0.0
2015-Jul-26 01:33N 49°00' W 123°08'1110.9
2015-Jul-26 00:33N 48°52' W 123°18'  
Track history (hours):
 
Tides and Currents Weather Stations Pressure Air Temp Water Temp Dewpoint Dewpoint Depression Visibility Wind Speed Wind Dir Waves Ship Positions

Queen Of Nanaimo

Last reported at 2015-Aug-04 23:33 UTC. Time now 2015-Aug-04 23:54 UTC.
Position N 48°48' W 123°20'.

Length 130 m; draft 4 m.

Type: Passenger vessel. MMSI: 316001254.

Date/timePositionNaut miles runAvg speedWind from/ knotsBaromVisibWave heightAir tempDewpointWater temp
2015-Aug-04 23:33N 48°48' W 123°20'6 5.6
2015-Aug-04 22:32N 48°51' W 123°27'0 0.1
2015-Aug-04 21:26N 48°51' W 123°27'6 6.4
2015-Aug-04 20:29N 48°48' W 123°19'4 3.9
2015-Aug-04 19:34N 48°52' W 123°19'8 8.4
2015-Aug-04 18:34N 48°58' W 123°11'3 3.0
2015-Aug-04 17:33N 49°00' W 123°08'9 9.3
2015-Aug-04 16:33N 48°53' W 123°17'3 2.5
2015-Aug-04 15:33N 48°51' W 123°20'2 1.6
2015-Aug-04 14:34N 48°50' W 123°20'3 2.8
2015-Aug-04 13:33N 48°50' W 123°25'2 1.9
2015-Aug-04 12:22N 48°51' W 123°27'0 0.0
2015-Aug-04 11:27N 48°51' W 123°27'0 0.0
2015-Aug-04 09:28N 48°51' W 123°27'0 0.0
2015-Aug-04 08:14N 48°51' W 123°27'0 0.0
2015-Aug-04 07:32N 48°51' W 123°27'7 7.2
2015-Aug-04 06:34N 48°54' W 123°17'9 8.9
2015-Aug-04 05:33N 49°00' W 123°08'10 9.8
2015-Aug-04 04:33N 48°53' W 123°18'3 2.6
2015-Aug-04 03:33N 48°51' W 123°20'7 7.2
2015-Aug-04 02:34N 48°57' W 123°13'5 5.3
2015-Aug-04 01:33N 49°00' W 123°08'1110.6
2015-Aug-04 00:33N 48°53' W 123°19'5 5.3
2015-Aug-03 23:32N 48°51' W 123°27'4 3.7
2015-Aug-03 22:33N 48°51' W 123°21'1212.3
2015-Aug-03 21:33N 49°00' W 123°08'2 2.0
2015-Aug-03 20:33N 48°58' W 123°09'8 8.4
2015-Aug-03 19:33N 48°53' W 123°19'2 1.9
2015-Aug-03 18:31N 48°51' W 123°20'5 4.7
2015-Aug-03 17:34N 48°55' W 123°16'8 7.9
2015-Aug-03 16:34N 49°00' W 123°08'9 8.6
2015-Aug-03 15:33N 48°54' W 123°16'6 6.0
2015-Aug-03 14:33N 48°51' W 123°25'1 1.3
2015-Aug-03 13:24N 48°51' W 123°27'0 0.0
2015-Aug-03 09:19N 48°51' W 123°27'7 2.5
2015-Aug-03 06:34N 48°54' W 123°17'9 8.9
2015-Aug-03 05:33N 49°00' W 123°08'1110.6
2015-Aug-03 04:33N 48°53' W 123°18'2 1.5
2015-Aug-03 03:17N 48°51' W 123°20'5 6.8
2015-Aug-03 02:33N 48°55' W 123°16'8 7.6
2015-Aug-03 01:33N 49°00' W 123°08'1110.7
2015-Aug-03 00:33N 48°52' W 123°18'5 5.4
2015-Aug-02 23:33N 48°51' W 123°27'1 1.3
2015-Aug-02 22:33N 48°51' W 123°25'1211.6
2015-Aug-02 21:33N 48°58' W 123°12'3 2.5
2015-Aug-02 20:33N 48°60' W 123°08'10 9.8
2015-Aug-02 19:34N 48°53' W 123°19'2 1.7
2015-Aug-02 18:27N 48°51' W 123°20'6 6.7
2015-Aug-02 17:34N 48°56' W 123°14'7 6.5
2015-Aug-02 16:34N 49°00' W 123°08'8 8.1
2015-Aug-02 15:34N 48°54' W 123°15'7 6.7
2015-Aug-02 14:33N 48°51' W 123°25'1 1.3
2015-Aug-02 13:29N 48°51' W 123°27'0 0.0
2015-Aug-02 12:28N 48°51' W 123°27'0 0.0
2015-Aug-02 11:28N 48°51' W 123°27'0 0.0
2015-Aug-02 09:13N 48°51' W 123°27'3 0.9
2015-Aug-02 05:33N 48°51' W 123°22'1312.7
2015-Aug-02 04:34N 48°60' W 123°08'0 0.4
2015-Aug-02 03:33N 49°00' W 123°08'0 0.0
2015-Aug-02 02:33N 49°00' W 123°08'0 0.0
2015-Aug-02 01:34N 49°00' W 123°08'1211.7
2015-Aug-02 00:33N 48°51' W 123°20'5 4.6
2015-Aug-01 23:32N 48°51' W 123°27'1 0.3
2015-Aug-01 21:28N 48°51' W 123°26'910.3
2015-Aug-01 20:33N 48°56' W 123°15'6 6.1
2015-Aug-01 19:33N 49°00' W 123°08'1010.0
2015-Aug-01 18:33N 48°53' W 123°18'3 2.6
2015-Aug-01 17:33N 48°51' W 123°21'6 5.7
2015-Aug-01 16:34N 48°55' W 123°15'7 6.9
2015-Aug-01 15:33N 49°00' W 123°08'5 4.9
2015-Aug-01 14:33N 48°56' W 123°12'1110.6
2015-Aug-01 13:33N 48°51' W 123°25'1 1.1
2015-Aug-01 12:33N 48°51' W 123°27'0 0.0
2015-Aug-01 11:13N 48°51' W 123°27'0 0.0
2015-Aug-01 09:03N 48°51' W 123°27'0 0.0
2015-Aug-01 07:04N 48°51' W 123°27'0 0.0
2015-Aug-01 06:33N 48°51' W 123°27'6 6.1
2015-Aug-01 05:33N 48°48' W 123°19'6 6.4
2015-Aug-01 04:34N 48°54' W 123°17'9 8.7
2015-Aug-01 03:33N 49°00' W 123°08'5 5.2
2015-Aug-01 02:33N 48°56' W 123°12'7 6.0
2015-Aug-01 01:22N 48°51' W 123°20'2 2.4
2015-Aug-01 00:33N 48°53' W 123°19'1110.8
2015-Jul-31 23:33N 49°00' W 123°08'1 0.5
2015-Jul-31 22:33N 48°60' W 123°08'1413.7
2015-Jul-31 21:33N 48°51' W 123°24'2 1.6
2015-Jul-31 20:28N 48°51' W 123°27'5 5.7
2015-Jul-31 19:33N 48°48' W 123°20'4 4.2
2015-Jul-31 18:33N 48°53' W 123°19'1010.4
2015-Jul-31 17:33N 49°00' W 123°08'0 0.3
2015-Jul-31 16:33N 49°00' W 123°08'1110.7
2015-Jul-31 15:33N 48°53' W 123°19'2 2.2
2015-Jul-31 14:33N 48°51' W 123°20'3 2.9
2015-Jul-31 13:33N 48°49' W 123°24'3 1.4
2015-Jul-31 11:23N 48°51' W 123°27'0 0.0
2015-Jul-31 10:33N 48°51' W 123°27'0 0.0
2015-Jul-31 09:31N 48°51' W 123°27'0 0.0
2015-Jul-31 08:27N 48°51' W 123°27'0 0.0
2015-Jul-31 07:28N 48°51' W 123°27'0 0.0
2015-Jul-31 06:31N 48°51' W 123°27'3 3.6
2015-Jul-31 05:33N 48°49' W 123°23'3 2.8
2015-Jul-31 04:25N 48°51' W 123°20'4 4.5
2015-Jul-31 03:33N 48°54' W 123°17'9 8.6
2015-Jul-31 02:33N 49°00' W 123°08'2 2.1
2015-Jul-31 01:33N 48°58' W 123°09'9 8.7
2015-Jul-31 00:33N 48°53' W 123°19'4 4.1
2015-Jul-30 23:33N 48°49' W 123°20'4 1.3
2015-Jul-30 20:30N 48°50' W 123°25'3 3.5
2015-Jul-30 19:33N 48°50' W 123°20'3 2.6
2015-Jul-30 18:33N 48°53' W 123°19'1110.6
2015-Jul-30 17:33N 49°00' W 123°08'0 0.1
2015-Jul-30 16:34N 49°00' W 123°08'1110.6
2015-Jul-30 15:33N 48°53' W 123°19'3 2.5
2015-Jul-30 14:33N 48°50' W 123°20'3 2.8
2015-Jul-30 13:32N 48°49' W 123°24'3 2.6
2015-Jul-30 12:33N 48°51' W 123°27'0 0.0
2015-Jul-30 11:29N 48°51' W 123°27'0 0.0
2015-Jul-30 10:32N 48°51' W 123°27'0 0.0
2015-Jul-30 09:25N 48°51' W 123°27'0 0.0
2015-Jul-30 07:12N 48°51' W 123°27'0 0.0
2015-Jul-30 06:12N 48°51' W 123°27'2 2.6
2015-Jul-30 05:33N 48°50' W 123°25'4 3.6
2015-Jul-30 04:33N 48°51' W 123°20'4 4.1
2015-Jul-30 03:34N 48°54' W 123°17'8 8.5
2015-Jul-30 02:33N 49°00' W 123°08'4 3.7
2015-Jul-30 01:34N 48°57' W 123°11'8 7.6
2015-Jul-30 00:33N 48°52' W 123°19'3 2.9
2015-Jul-29 23:34N 48°49' W 123°20'4 1.4
2015-Jul-29 20:32N 48°51' W 123°26'4 3.8
2015-Jul-29 19:33N 48°51' W 123°20'2 2.0
2015-Jul-29 18:34N 48°53' W 123°19'1110.7
2015-Jul-29 17:33N 49°00' W 123°08'0 0.0
2015-Jul-29 16:33N 49°00' W 123°08'1110.6
2015-Jul-29 15:33N 48°53' W 123°19'2 2.0
2015-Jul-29 14:33N 48°51' W 123°20'3 3.1
2015-Jul-29 13:33N 48°49' W 123°24'3 3.1
2015-Jul-29 12:33N 48°51' W 123°27'0 0.0
2015-Jul-29 10:33N 48°51' W 123°27'0 0.0
2015-Jul-29 09:11N 48°51' W 123°27'0 0.0
2015-Jul-29 08:32N 48°51' W 123°27'0 0.0
2015-Jul-29 06:03N 48°51' W 123°27'1 1.6
2015-Jul-29 05:33N 48°51' W 123°26'4 3.8
2015-Jul-29 04:33N 48°51' W 123°20'3 3.0
2015-Jul-29 03:33N 48°53' W 123°18'10 9.5
2015-Jul-29 02:33N 49°00' W 123°08'4 4.0
2015-Jul-29 01:33N 48°57' W 123°11'8 7.7
2015-Jul-29 00:33N 48°51' W 123°19'3 3.4
2015-Jul-28 23:34N 48°48' W 123°20'5 2.6
2015-Jul-28 21:28N 48°51' W 123°27'1 1.1
2015-Jul-28 20:33N 48°51' W 123°25'3 3.4
2015-Jul-28 19:33N 48°50' W 123°20'2 2.5
2015-Jul-28 18:33N 48°53' W 123°19'1010.2
2015-Jul-28 17:34N 49°00' W 123°08'1 0.5
2015-Jul-28 16:33N 49°00' W 123°08'1110.7
2015-Jul-28 15:33N 48°53' W 123°19'2 2.0
2015-Jul-28 14:33N 48°51' W 123°20'3 3.3
2015-Jul-28 13:33N 48°49' W 123°24'3 0.9
2015-Jul-28 10:28N 48°51' W 123°27'0 0.0
2015-Jul-28 09:08N 48°51' W 123°27'0 0.0
2015-Jul-28 08:18N 48°51' W 123°27'0 0.0
2015-Jul-28 07:33N 48°51' W 123°27'0 0.0
2015-Jul-28 06:32N 48°51' W 123°27'1 1.2
2015-Jul-28 05:33N 48°50' W 123°25'4 3.5
2015-Jul-28 04:28N 48°51' W 123°20'2 2.5
2015-Jul-28 03:33N 48°53' W 123°18'1010.3
2015-Jul-28 02:34N 49°00' W 123°08'4 4.2
2015-Jul-28 01:34N 48°57' W 123°12'7 7.4
2015-Jul-28 00:34N 48°51' W 123°19'3 2.8
2015-Jul-27 23:33N 48°49' W 123°20'5 4.6
2015-Jul-27 22:33N 48°51' W 123°26'1 0.4
2015-Jul-27 21:22N 48°51' W 123°27'5 5.7
2015-Jul-27 20:34N 48°48' W 123°21'3 2.7
2015-Jul-27 19:33N 48°51' W 123°20'2 2.4
2015-Jul-27 18:34N 48°53' W 123°18'1010.0
2015-Jul-27 17:33N 49°00' W 123°08'0 0.0
2015-Jul-27 16:33N 49°00' W 123°08'1110.7
2015-Jul-27 15:33N 48°53' W 123°19'2 2.0
2015-Jul-27 14:33N 48°51' W 123°20'3 3.3
2015-Jul-27 13:33N 48°49' W 123°24'3 0.7
2015-Jul-27 10:09N 48°51' W 123°27'0 0.0
2015-Jul-27 08:32N 48°51' W 123°27'0 0.0
2015-Jul-27 07:30N 48°51' W 123°27'9 9.6
2015-Jul-27 06:34N 48°56' W 123°15'7 6.6
2015-Jul-27 05:33N 49°00' W 123°08'1110.7
2015-Jul-27 04:34N 48°53' W 123°19'2 2.0
2015-Jul-27 03:33N 48°51' W 123°21'1312.6
2015-Jul-27 02:34N 49°00' W 123°08'4 3.6
2015-Jul-27 01:33N 48°57' W 123°11'7 7.3
2015-Jul-27 00:33N 48°52' W 123°18'6 4.4
2015-Jul-26 23:18N 48°51' W 123°27'7 9.1
2015-Jul-26 22:34N 48°54' W 123°17'9 9.0
2015-Jul-26 21:34N 49°00' W 123°08'7 6.8
2015-Jul-26 20:34N 48°55' W 123°14'5 5.2
2015-Jul-26 19:34N 48°52' W 123°20'1 0.7
2015-Jul-26 18:33N 48°51' W 123°20'6 5.7
2015-Jul-26 17:33N 48°56' W 123°15'7 6.9
2015-Jul-26 16:33N 49°00' W 123°08'7 7.5
2015-Jul-26 15:33N 48°55' W 123°15'7 6.8
2015-Jul-26 14:33N 48°51' W 123°24'2 1.7
2015-Jul-26 13:33N 48°51' W 123°27'0 0.0
2015-Jul-26 11:12N 48°51' W 123°27'0 0.0
2015-Jul-26 10:33N 48°51' W 123°27'0 0.0
2015-Jul-26 06:21N 48°51' W 123°27'4 4.8
2015-Jul-26 05:33N 48°52' W 123°21'1212.2
2015-Jul-26 04:33N 49°00' W 123°08'0 0.3
2015-Jul-26 03:33N 49°00' W 123°08'0 0.0
2015-Jul-26 02:33N 49°00' W 123°08'0 0.0
2015-Jul-26 01:33N 49°00' W 123°08'1110.9
2015-Jul-26 00:33N 48°52' W 123°18'  

Dump ship's entire track history